aviador You're here:

KGKJ Decoded Metar

MEADVILLE in PA, USA
Report Time2017-05-25 00:53:00
UTC Time2017-05-25 01:17:00
Flight Rules vfr VFR
WindVRB at 05 kt
Visibility9999 m
Phenomena:Light Rain
Clouds:Overcast 036 Hf
Expected CloudBase > 1,600 ft AGL from Temp-Dew spread
Ceiling3,600 ft
Temp16°C (ISA +4)
Dew Point12°C (77% RH)
AAT14.8°C
QNH1002 hPa
Density Alt2,418 ft
Elevation1,404 ft
Report Wrong Elevation
Raw Report
METAR KGKJ 250053Z AUTO VRB05KT 8SM -RA OVC036 16/12 A2958 RMK AO2
SLP014 P0000 T01560122 TSNO=

Extra information for KGKJ:More info

Metar Taf Metar & Taf Last 4 Metars F.Rules Stats Wind Profile Meteogram Temp Stats Airport Information Weather charts Add Link Nearby VenuesMetar ALERT Operation Metar Decoded Social comments

AIRNAV info for KGKJ